sensor_id;sensor_type;location;lat;lon;timestamp;temperature;humidity
39969;DHT22;25648;47.808;19.004;2022-08-11T00:00:11;27.00;48.70
39969;DHT22;25648;47.808;19.004;2022-08-11T00:05:11;26.80;48.80
39969;DHT22;25648;47.808;19.004;2022-08-11T00:07:55;26.60;49.40
39969;DHT22;25648;47.808;19.004;2022-08-11T00:10:26;26.40;49.30
39969;DHT22;25648;47.808;19.004;2022-08-11T00:12:59;26.30;49.60
39969;DHT22;25648;47.808;19.004;2022-08-11T00:15:28;26.30;49.20
39969;DHT22;25648;47.808;19.004;2022-08-11T00:18:02;26.20;49.70
39969;DHT22;25648;47.808;19.004;2022-08-11T00:20:32;26.10;49.50
39969;DHT22;25648;47.808;19.004;2022-08-11T00:23:02;26.00;49.10
39969;DHT22;25648;47.808;19.004;2022-08-11T00:25:46;25.60;49.80
39969;DHT22;25648;47.808;19.004;2022-08-11T00:28:28;25.80;50.20
39969;DHT22;25648;47.808;19.004;2022-08-11T00:31:06;26.00;50.00
39969;DHT22;25648;47.808;19.004;2022-08-11T00:33:43;26.10;49.80
39969;DHT22;25648;47.808;19.004;2022-08-11T00:36:12;26.20;49.60
39969;DHT22;25648;47.808;19.004;2022-08-11T00:38:41;26.40;49.60
39969;DHT22;25648;47.808;19.004;2022-08-11T00:41:21;26.50;49.60
39969;DHT22;25648;47.808;19.004;2022-08-11T00:55:49;25.90;50.40
39969;DHT22;25648;47.808;19.004;2022-08-11T01:12:34;25.90;50.70
39969;DHT22;25648;47.808;19.004;2022-08-11T01:28:54;25.90;50.50
39969;DHT22;25648;47.808;19.004;2022-08-11T01:45:58;25.90;50.60
39969;DHT22;25648;47.808;19.004;2022-08-11T01:48:38;25.90;50.70
39969;DHT22;25648;47.808;19.004;2022-08-11T02:00:16;25.80;50.50
39969;DHT22;25648;47.808;19.004;2022-08-11T02:11:21;25.50;51.30
39969;DHT22;25648;47.808;19.004;2022-08-11T02:14:23;25.40;51.50
39969;DHT22;25648;47.808;19.004;2022-08-11T02:17:06;25.40;52.00
39969;DHT22;25648;47.808;19.004;2022-08-11T02:20:00;25.30;51.60
39969;DHT22;25648;47.808;19.004;2022-08-11T02:23:02;25.30;51.50
39969;DHT22;25648;47.808;19.004;2022-08-11T02:26:08;25.30;51.90
39969;DHT22;25648;47.808;19.004;2022-08-11T02:35:10;25.10;51.60
39969;DHT22;25648;47.808;19.004;2022-08-11T02:37:41;25.00;51.90
39969;DHT22;25648;47.808;19.004;2022-08-11T02:40:25;25.00;52.00
39969;DHT22;25648;47.808;19.004;2022-08-11T02:46:05;25.10;51.70
39969;DHT22;25648;47.808;19.004;2022-08-11T02:48:49;25.10;51.30
39969;DHT22;25648;47.808;19.004;2022-08-11T02:51:39;25.10;51.60
39969;DHT22;25648;47.808;19.004;2022-08-11T02:57:12;25.30;51.70
39969;DHT22;25648;47.808;19.004;2022-08-11T02:59:58;25.50;52.00
39969;DHT22;25648;47.808;19.004;2022-08-11T03:02:39;25.40;52.10
39969;DHT22;25648;47.808;19.004;2022-08-11T03:08:02;25.40;52.20
39969;DHT22;25648;47.808;19.004;2022-08-11T03:13:33;25.40;52.30
39969;DHT22;25648;47.808;19.004;2022-08-11T03:16:36;25.50;52.30
39969;DHT22;25648;47.808;19.004;2022-08-11T03:22:36;25.50;52.20
39969;DHT22;25648;47.808;19.004;2022-08-11T03:27:33;25.20;52.90
39969;DHT22;25648;47.808;19.004;2022-08-11T03:37:04;25.30;53.00
39969;DHT22;25648;47.808;19.004;2022-08-11T03:40:15;24.90;53.90
39969;DHT22;25648;47.808;19.004;2022-08-11T03:42:56;25.00;53.90
39969;DHT22;25648;47.808;19.004;2022-08-11T03:45:49;25.20;53.90
39969;DHT22;25648;47.808;19.004;2022-08-11T03:56:41;25.50;53.50
39969;DHT22;25648;47.808;19.004;2022-08-11T04:02:25;25.20;53.50
39969;DHT22;25648;47.808;19.004;2022-08-11T04:05:13;24.60;55.20
39969;DHT22;25648;47.808;19.004;2022-08-11T04:08:05;24.30;56.20
39969;DHT22;25648;47.808;19.004;2022-08-11T04:16:38;24.10;56.80
39969;DHT22;25648;47.808;19.004;2022-08-11T04:22:26;24.50;56.50
39969;DHT22;25648;47.808;19.004;2022-08-11T05:13:21;26.80;54.10
39969;DHT22;25648;47.808;19.004;2022-08-11T05:16:10;26.90;54.20
39969;DHT22;25648;47.808;19.004;2022-08-11T05:18:55;27.00;54.30
39969;DHT22;25648;47.808;19.004;2022-08-11T05:21:44;26.90;54.20
39969;DHT22;25648;47.808;19.004;2022-08-11T05:24:34;27.00;54.40
39969;DHT22;25648;47.808;19.004;2022-08-11T05:27:22;27.00;54.20
39969;DHT22;25648;47.808;19.004;2022-08-11T05:30:11;27.10;54.20
39969;DHT22;25648;47.808;19.004;2022-08-11T05:33:18;27.10;54.20
39969;DHT22;25648;47.808;19.004;2022-08-11T05:36:36;27.30;54.20
39969;DHT22;25648;47.808;19.004;2022-08-11T05:39:24;27.40;54.40
39969;DHT22;25648;47.808;19.004;2022-08-11T05:42:10;27.50;54.00
39969;DHT22;25648;47.808;19.004;2022-08-11T05:44:58;27.80;54.00
39969;DHT22;25648;47.808;19.004;2022-08-11T05:47:47;28.00;54.10
39969;DHT22;25648;47.808;19.004;2022-08-11T05:50:32;28.20;53.70
39969;DHT22;25648;47.808;19.004;2022-08-11T05:53:17;28.20;53.70
39969;DHT22;25648;47.808;19.004;2022-08-11T05:56:04;28.30;53.40
39969;DHT22;25648;47.808;19.004;2022-08-11T05:58:51;28.40;53.50
39969;DHT22;25648;47.808;19.004;2022-08-11T06:01:27;28.40;52.90
39969;DHT22;25648;47.808;19.004;2022-08-11T06:03:57;28.50;52.80
39969;DHT22;25648;47.808;19.004;2022-08-11T06:06:49;28.50;52.30
39969;DHT22;25648;47.808;19.004;2022-08-11T06:09:24;28.50;52.50
39969;DHT22;25648;47.808;19.004;2022-08-11T06:11:51;28.70;51.70
39969;DHT22;25648;47.808;19.004;2022-08-11T06:14:18;28.80;52.20
39969;DHT22;25648;47.808;19.004;2022-08-11T06:16:47;29.00;51.60
39969;DHT22;25648;47.808;19.004;2022-08-11T06:19:14;29.10;50.80
39969;DHT22;25648;47.808;19.004;2022-08-11T06:21:45;29.10;50.50
39969;DHT22;25648;47.808;19.004;2022-08-11T06:24:13;29.00;49.10
39969;DHT22;25648;47.808;19.004;2022-08-11T06:26:48;28.80;47.80
39969;DHT22;25648;47.808;19.004;2022-08-11T06:29:14;28.50;46.70
39969;DHT22;25648;47.808;19.004;2022-08-11T06:31:59;28.20;47.30
39969;DHT22;25648;47.808;19.004;2022-08-11T06:37:13;27.40;47.40
39969;DHT22;25648;47.808;19.004;2022-08-11T06:45:20;29.20;48.70
39969;DHT22;25648;47.808;19.004;2022-08-11T06:47:49;29.80;46.50
39969;DHT22;25648;47.808;19.004;2022-08-11T06:50:18;30.20;46.90
39969;DHT22;25648;47.808;19.004;2022-08-11T06:53:18;30.40;45.20
39969;DHT22;25648;47.808;19.004;2022-08-11T06:55:47;30.00;45.50
39969;DHT22;25648;47.808;19.004;2022-08-11T06:58:36;29.60;45.70
39969;DHT22;25648;47.808;19.004;2022-08-11T07:04:13;29.70;45.80
39969;DHT22;25648;47.808;19.004;2022-08-11T07:07:17;29.50;46.00
39969;DHT22;25648;47.808;19.004;2022-08-11T07:10:25;29.40;46.80
39969;DHT22;25648;47.808;19.004;2022-08-11T07:13:15;29.80;46.60
39969;DHT22;25648;47.808;19.004;2022-08-11T07:16:03;30.30;46.10
39969;DHT22;25648;47.808;19.004;2022-08-11T07:18:33;30.60;45.90
39969;DHT22;25648;47.808;19.004;2022-08-11T07:21:29;31.00;45.20
39969;DHT22;25648;47.808;19.004;2022-08-11T07:24:16;31.00;45.20
39969;DHT22;25648;47.808;19.004;2022-08-11T07:27:05;31.00;44.80
39969;DHT22;25648;47.808;19.004;2022-08-11T07:29:52;30.60;45.20
39969;DHT22;25648;47.808;19.004;2022-08-11T07:32:24;30.70;45.20
39969;DHT22;25648;47.808;19.004;2022-08-11T07:34:57;31.00;45.70
39969;DHT22;25648;47.808;19.004;2022-08-11T07:37:25;31.50;44.80
39969;DHT22;25648;47.808;19.004;2022-08-11T07:39:53;31.80;45.00
39969;DHT22;25648;47.808;19.004;2022-08-11T07:42:22;31.90;43.30
39969;DHT22;25648;47.808;19.004;2022-08-11T07:44:52;32.00;44.50
39969;DHT22;25648;47.808;19.004;2022-08-11T07:47:38;32.00;43.80
39969;DHT22;25648;47.808;19.004;2022-08-11T07:50:23;31.70;43.00
39969;DHT22;25648;47.808;19.004;2022-08-11T07:53:09;31.60;43.50
39969;DHT22;25648;47.808;19.004;2022-08-11T07:55:35;31.40;43.50
39969;DHT22;25648;47.808;19.004;2022-08-11T07:58:03;31.50;42.70
39969;DHT22;25648;47.808;19.004;2022-08-11T08:00:52;31.00;43.30
39969;DHT22;25648;47.808;19.004;2022-08-11T08:03:38;31.10;42.90
39969;DHT22;25648;47.808;19.004;2022-08-11T08:06:23;31.20;43.80
39969;DHT22;25648;47.808;19.004;2022-08-11T08:09:08;31.40;43.40
39969;DHT22;25648;47.808;19.004;2022-08-11T08:11:54;31.50;42.40
39969;DHT22;25648;47.808;19.004;2022-08-11T08:14:38;31.30;43.10
39969;DHT22;25648;47.808;19.004;2022-08-11T08:17:23;31.20;42.00
39969;DHT22;25648;47.808;19.004;2022-08-11T08:20:11;31.00;41.80
39969;DHT22;25648;47.808;19.004;2022-08-11T08:22:38;31.00;43.90
39969;DHT22;25648;47.808;19.004;2022-08-11T08:25:07;31.30;42.10
39969;DHT22;25648;47.808;19.004;2022-08-11T08:27:34;31.50;42.20
39969;DHT22;25648;47.808;19.004;2022-08-11T08:30:10;31.50;41.70
39969;DHT22;25648;47.808;19.004;2022-08-11T08:32:56;31.10;41.60
39969;DHT22;25648;47.808;19.004;2022-08-11T08:35:23;31.00;41.60
39969;DHT22;25648;47.808;19.004;2022-08-11T08:37:51;31.30;42.90
39969;DHT22;25648;47.808;19.004;2022-08-11T08:40:17;31.40;42.00
39969;DHT22;25648;47.808;19.004;2022-08-11T08:43:05;31.50;42.20
39969;DHT22;25648;47.808;19.004;2022-08-11T08:45:34;31.60;42.10
39969;DHT22;25648;47.808;19.004;2022-08-11T08:48:22;31.70;42.00
39969;DHT22;25648;47.808;19.004;2022-08-11T08:50:56;31.60;41.60
39969;DHT22;25648;47.808;19.004;2022-08-11T08:53:49;31.90;42.30
39969;DHT22;25648;47.808;19.004;2022-08-11T08:56:16;31.80;41.80
39969;DHT22;25648;47.808;19.004;2022-08-11T08:58:45;31.80;42.30
39969;DHT22;25648;47.808;19.004;2022-08-11T09:01:14;31.60;41.90
39969;DHT22;25648;47.808;19.004;2022-08-11T09:03:41;31.20;42.80
39969;DHT22;25648;47.808;19.004;2022-08-11T09:06:09;31.50;42.20
39969;DHT22;25648;47.808;19.004;2022-08-11T09:08:35;31.80;42.90
39969;DHT22;25648;47.808;19.004;2022-08-11T09:11:03;32.00;42.50
39969;DHT22;25648;47.808;19.004;2022-08-11T09:13:49;32.10;42.70
39969;DHT22;25648;47.808;19.004;2022-08-11T09:16:17;32.20;41.90
39969;DHT22;25648;47.808;19.004;2022-08-11T09:18:43;32.30;41.80
39969;DHT22;25648;47.808;19.004;2022-08-11T09:21:11;32.70;41.30
39969;DHT22;25648;47.808;19.004;2022-08-11T09:23:39;31.70;41.20
39969;DHT22;25648;47.808;19.004;2022-08-11T09:26:24;30.90;42.80
39969;DHT22;25648;47.808;19.004;2022-08-11T09:29:10;31.10;43.00
39969;DHT22;25648;47.808;19.004;2022-08-11T09:31:36;31.40;41.40
39969;DHT22;25648;47.808;19.004;2022-08-11T09:34:02;31.90;41.10
39969;DHT22;25648;47.808;19.004;2022-08-11T09:36:29;32.20;40.30
39969;DHT22;25648;47.808;19.004;2022-08-11T09:39:14;32.30;40.80
39969;DHT22;25648;47.808;19.004;2022-08-11T09:42:01;32.50;41.20
39969;DHT22;25648;47.808;19.004;2022-08-11T09:44:27;32.40;41.60
39969;DHT22;25648;47.808;19.004;2022-08-11T09:47:16;32.30;41.60
39969;DHT22;25648;47.808;19.004;2022-08-11T09:49:44;32.50;41.30
39969;DHT22;25648;47.808;19.004;2022-08-11T09:52:11;32.60;42.10
39969;DHT22;25648;47.808;19.004;2022-08-11T09:54:40;32.80;40.80
39969;DHT22;25648;47.808;19.004;2022-08-11T09:57:07;32.60;39.20
39969;DHT22;25648;47.808;19.004;2022-08-11T09:59:52;32.60;39.80
39969;DHT22;25648;47.808;19.004;2022-08-11T10:02:24;32.80;40.30
39969;DHT22;25648;47.808;19.004;2022-08-11T10:04:52;32.70;39.60
39969;DHT22;25648;47.808;19.004;2022-08-11T10:07:38;32.40;39.30
39969;DHT22;25648;47.808;19.004;2022-08-11T10:10:06;32.00;40.40
39969;DHT22;25648;47.808;19.004;2022-08-11T10:12:33;32.00;39.80
39969;DHT22;25648;47.808;19.004;2022-08-11T10:15:03;32.20;39.70
39969;DHT22;25648;47.808;19.004;2022-08-11T10:17:57;32.80;39.60
39969;DHT22;25648;47.808;19.004;2022-08-11T10:20:46;33.10;38.60
39969;DHT22;25648;47.808;19.004;2022-08-11T10:23:16;33.10;39.10
39969;DHT22;25648;47.808;19.004;2022-08-11T10:26:02;31.80;39.40
39969;DHT22;25648;47.808;19.004;2022-08-11T10:28:47;32.20;40.20
39969;DHT22;25648;47.808;19.004;2022-08-11T10:31:13;32.50;40.40
39969;DHT22;25648;47.808;19.004;2022-08-11T10:33:57;33.20;40.40
39969;DHT22;25648;47.808;19.004;2022-08-11T10:36:54;33.60;39.70
39969;DHT22;25648;47.808;19.004;2022-08-11T10:39:21;34.10;39.30
39969;DHT22;25648;47.808;19.004;2022-08-11T10:41:48;34.40;40.10
39969;DHT22;25648;47.808;19.004;2022-08-11T10:44:42;34.10;40.20
39969;DHT22;25648;47.808;19.004;2022-08-11T10:47:11;33.50;39.60
39969;DHT22;25648;47.808;19.004;2022-08-11T10:49:56;33.40;40.00
39969;DHT22;25648;47.808;19.004;2022-08-11T10:52:42;33.80;39.60
39969;DHT22;25648;47.808;19.004;2022-08-11T10:55:27;33.60;39.30
39969;DHT22;25648;47.808;19.004;2022-08-11T10:58:12;33.30;39.90
39969;DHT22;25648;47.808;19.004;2022-08-11T11:00:58;33.50;39.40
39969;DHT22;25648;47.808;19.004;2022-08-11T11:03:28;33.50;39.60
39969;DHT22;25648;47.808;19.004;2022-08-11T11:06:00;33.50;39.80
39969;DHT22;25648;47.808;19.004;2022-08-11T11:08:29;33.80;39.90
39969;DHT22;25648;47.808;19.004;2022-08-11T11:11:15;33.80;40.00
39969;DHT22;25648;47.808;19.004;2022-08-11T11:13:48;33.50;39.80
39969;DHT22;25648;47.808;19.004;2022-08-11T11:16:35;33.30;40.50
39969;DHT22;25648;47.808;19.004;2022-08-11T11:19:22;33.20;39.50
39969;DHT22;25648;47.808;19.004;2022-08-11T11:21:53;33.10;39.50
39969;DHT22;25648;47.808;19.004;2022-08-11T11:24:44;33.20;39.70
39969;DHT22;25648;47.808;19.004;2022-08-11T11:27:26;33.60;39.90
39969;DHT22;25648;47.808;19.004;2022-08-11T11:30:04;34.00;41.00
39969;DHT22;25648;47.808;19.004;2022-08-11T11:33:01;34.40;38.20
39969;DHT22;25648;47.808;19.004;2022-08-11T11:38:13;33.70;38.10
39969;DHT22;25648;47.808;19.004;2022-08-11T11:40:39;33.90;39.30
39969;DHT22;25648;47.808;19.004;2022-08-11T11:43:06;34.10;38.80
39969;DHT22;25648;47.808;19.004;2022-08-11T11:45:32;34.30;38.10
39969;DHT22;25648;47.808;19.004;2022-08-11T11:47:59;34.30;39.60
39969;DHT22;25648;47.808;19.004;2022-08-11T11:50:31;34.40;38.60
39969;DHT22;25648;47.808;19.004;2022-08-11T11:53:01;34.30;39.20
39969;DHT22;25648;47.808;19.004;2022-08-11T11:55:28;34.20;40.30
39969;DHT22;25648;47.808;19.004;2022-08-11T11:58:00;34.40;39.20
39969;DHT22;25648;47.808;19.004;2022-08-11T12:00:45;34.80;39.90
39969;DHT22;25648;47.808;19.004;2022-08-11T12:03:32;34.50;39.20
39969;DHT22;25648;47.808;19.004;2022-08-11T12:05:58;34.60;39.70
39969;DHT22;25648;47.808;19.004;2022-08-11T12:08:25;34.40;38.90
39969;DHT22;25648;47.808;19.004;2022-08-11T12:10:59;34.30;39.50
39969;DHT22;25648;47.808;19.004;2022-08-11T12:13:46;34.30;39.20
39969;DHT22;25648;47.808;19.004;2022-08-11T12:16:16;34.00;39.30
39969;DHT22;25648;47.808;19.004;2022-08-11T12:18:45;34.00;40.00
39969;DHT22;25648;47.808;19.004;2022-08-11T12:21:14;33.50;38.90
39969;DHT22;25648;47.808;19.004;2022-08-11T12:23:41;32.80;40.00
39969;DHT22;25648;47.808;19.004;2022-08-11T12:26:27;32.70;40.20
39969;DHT22;25648;47.808;19.004;2022-08-11T12:29:13;32.90;39.90
39969;DHT22;25648;47.808;19.004;2022-08-11T12:31:40;33.10;40.60
39969;DHT22;25648;47.808;19.004;2022-08-11T12:34:14;33.30;40.10
39969;DHT22;25648;47.808;19.004;2022-08-11T12:36:55;33.60;39.50
39969;DHT22;25648;47.808;19.004;2022-08-11T12:39:24;34.10;39.70
39969;DHT22;25648;47.808;19.004;2022-08-11T12:42:10;34.40;39.70
39969;DHT22;25648;47.808;19.004;2022-08-11T12:44:57;34.50;39.40
39969;DHT22;25648;47.808;19.004;2022-08-11T12:47:47;34.10;38.80
39969;DHT22;25648;47.808;19.004;2022-08-11T12:50:33;33.90;40.30
39969;DHT22;25648;47.808;19.004;2022-08-11T12:53:23;33.90;39.70
39969;DHT22;25648;47.808;19.004;2022-08-11T12:55:52;33.90;39.40
39969;DHT22;25648;47.808;19.004;2022-08-11T12:58:40;34.00;38.90
39969;DHT22;25648;47.808;19.004;2022-08-11T13:01:06;34.30;39.00
39969;DHT22;25648;47.808;19.004;2022-08-11T13:03:51;34.60;38.90
39969;DHT22;25648;47.808;19.004;2022-08-11T13:06:35;34.10;38.80
39969;DHT22;25648;47.808;19.004;2022-08-11T13:09:04;33.80;39.60
39969;DHT22;25648;47.808;19.004;2022-08-11T13:11:32;33.80;39.40
39969;DHT22;25648;47.808;19.004;2022-08-11T13:14:16;33.40;39.30
39969;DHT22;25648;47.808;19.004;2022-08-11T13:16:43;33.30;39.60
39969;DHT22;25648;47.808;19.004;2022-08-11T13:19:29;33.30;39.50
39969;DHT22;25648;47.808;19.004;2022-08-11T13:21:56;33.70;39.70
39969;DHT22;25648;47.808;19.004;2022-08-11T13:24:22;34.00;39.20
39969;DHT22;25648;47.808;19.004;2022-08-11T13:26:49;34.20;39.20
39969;DHT22;25648;47.808;19.004;2022-08-11T13:29:23;34.20;39.10
39969;DHT22;25648;47.808;19.004;2022-08-11T13:31:53;34.30;38.70
39969;DHT22;25648;47.808;19.004;2022-08-11T13:34:22;33.80;38.90
39969;DHT22;25648;47.808;19.004;2022-08-11T13:36:51;33.70;38.70
39969;DHT22;25648;47.808;19.004;2022-08-11T13:39:17;33.90;39.10
39969;DHT22;25648;47.808;19.004;2022-08-11T13:41:43;34.10;39.00
39969;DHT22;25648;47.808;19.004;2022-08-11T13:44:15;34.10;38.80
39969;DHT22;25648;47.808;19.004;2022-08-11T13:46:41;34.10;39.90
39969;DHT22;25648;47.808;19.004;2022-08-11T13:49:09;33.70;38.50
39969;DHT22;25648;47.808;19.004;2022-08-11T13:51:36;33.60;39.30
39969;DHT22;25648;47.808;19.004;2022-08-11T13:54:09;33.70;39.40
39969;DHT22;25648;47.808;19.004;2022-08-11T13:56:38;33.70;38.60
39969;DHT22;25648;47.808;19.004;2022-08-11T13:59:09;33.50;38.60
39969;DHT22;25648;47.808;19.004;2022-08-11T14:01:43;33.60;39.30
39969;DHT22;25648;47.808;19.004;2022-08-11T14:04:14;33.70;39.10
39969;DHT22;25648;47.808;19.004;2022-08-11T14:06:45;33.70;38.60
39969;DHT22;25648;47.808;19.004;2022-08-11T14:09:15;34.00;39.00
39969;DHT22;25648;47.808;19.004;2022-08-11T14:11:45;34.10;38.50
39969;DHT22;25648;47.808;19.004;2022-08-11T14:14:32;33.30;38.30
39969;DHT22;25648;47.808;19.004;2022-08-11T14:17:04;33.00;40.00
39969;DHT22;25648;47.808;19.004;2022-08-11T14:19:35;33.40;39.30
39969;DHT22;25648;47.808;19.004;2022-08-11T14:22:04;33.60;39.00
39969;DHT22;25648;47.808;19.004;2022-08-11T14:24:37;33.80;38.80
39969;DHT22;25648;47.808;19.004;2022-08-11T14:27:05;34.00;38.70
39969;DHT22;25648;47.808;19.004;2022-08-11T14:29:33;34.00;38.80
39969;DHT22;25648;47.808;19.004;2022-08-11T14:32:05;34.10;39.00
39969;DHT22;25648;47.808;19.004;2022-08-11T14:34:33;34.00;39.70
39969;DHT22;25648;47.808;19.004;2022-08-11T14:37:11;34.00;39.20
39969;DHT22;25648;47.808;19.004;2022-08-11T14:39:48;34.30;39.70
39969;DHT22;25648;47.808;19.004;2022-08-11T14:42:17;34.40;38.90
39969;DHT22;25648;47.808;19.004;2022-08-11T14:45:13;34.40;38.90
39969;DHT22;25648;47.808;19.004;2022-08-11T14:48:01;34.50;38.80
39969;DHT22;25648;47.808;19.004;2022-08-11T14:50:31;34.10;39.30
39969;DHT22;25648;47.808;19.004;2022-08-11T14:55:31;33.90;39.10
39969;DHT22;25648;47.808;19.004;2022-08-11T14:58:20;33.90;39.20
39969;DHT22;25648;47.808;19.004;2022-08-11T15:00:52;34.00;39.20
39969;DHT22;25648;47.808;19.004;2022-08-11T15:03:20;34.00;39.50
39969;DHT22;25648;47.808;19.004;2022-08-11T15:05:55;33.90;39.60
39969;DHT22;25648;47.808;19.004;2022-08-11T15:08:24;34.10;39.20
39969;DHT22;25648;47.808;19.004;2022-08-11T15:11:11;34.10;39.90
39969;DHT22;25648;47.808;19.004;2022-08-11T15:13:58;34.00;39.90
39969;DHT22;25648;47.808;19.004;2022-08-11T15:16:26;34.10;40.30
39969;DHT22;25648;47.808;19.004;2022-08-11T15:19:12;33.90;39.60
39969;DHT22;25648;47.808;19.004;2022-08-11T15:21:38;33.70;39.90
39969;DHT22;25648;47.808;19.004;2022-08-11T15:24:23;33.60;39.00
39969;DHT22;25648;47.808;19.004;2022-08-11T15:26:49;33.50;39.80
39969;DHT22;25648;47.808;19.004;2022-08-11T15:29:37;33.50;40.20
39969;DHT22;25648;47.808;19.004;2022-08-11T15:32:24;33.60;39.20
39969;DHT22;25648;47.808;19.004;2022-08-11T15:35:12;33.70;39.00
39969;DHT22;25648;47.808;19.004;2022-08-11T15:38:01;33.80;38.90
39969;DHT22;25648;47.808;19.004;2022-08-11T15:40:30;33.70;39.20
39969;DHT22;25648;47.808;19.004;2022-08-11T15:43:21;33.60;39.60
39969;DHT22;25648;47.808;19.004;2022-08-11T15:46:13;33.30;39.80
39969;DHT22;25648;47.808;19.004;2022-08-11T15:48:46;33.40;39.60
39969;DHT22;25648;47.808;19.004;2022-08-11T15:51:25;33.60;39.50
39969;DHT22;25648;47.808;19.004;2022-08-11T15:53:57;33.60;39.60
39969;DHT22;25648;47.808;19.004;2022-08-11T15:56:28;33.60;39.50
39969;DHT22;25648;47.808;19.004;2022-08-11T15:58:57;33.40;39.60
39969;DHT22;25648;47.808;19.004;2022-08-11T16:01:43;33.20;39.90
39969;DHT22;25648;47.808;19.004;2022-08-11T16:04:29;33.10;40.00
39969;DHT22;25648;47.808;19.004;2022-08-11T16:09:40;33.50;39.80
39969;DHT22;25648;47.808;19.004;2022-08-11T16:12:12;33.60;40.30
39969;DHT22;25648;47.808;19.004;2022-08-11T16:14:42;33.50;40.10
39969;DHT22;25648;47.808;19.004;2022-08-11T16:17:30;33.60;40.60
39969;DHT22;25648;47.808;19.004;2022-08-11T16:19:57;33.70;40.40
39969;DHT22;25648;47.808;19.004;2022-08-11T16:22:27;33.70;40.30
39969;DHT22;25648;47.808;19.004;2022-08-11T16:25:08;33.60;40.40
39969;DHT22;25648;47.808;19.004;2022-08-11T16:27:36;33.70;40.60
39969;DHT22;25648;47.808;19.004;2022-08-11T16:30:03;33.50;40.70
39969;DHT22;25648;47.808;19.004;2022-08-11T16:32:34;32.60;41.30
39969;DHT22;25648;47.808;19.004;2022-08-11T16:35:17;31.60;42.20
39969;DHT22;25648;47.808;19.004;2022-08-11T16:38:03;30.80;42.90
39969;DHT22;25648;47.808;19.004;2022-08-11T16:40:51;30.50;43.20
39969;DHT22;25648;47.808;19.004;2022-08-11T16:43:20;30.50;43.30
39969;DHT22;25648;47.808;19.004;2022-08-11T16:46:06;30.50;43.30
39969;DHT22;25648;47.808;19.004;2022-08-11T16:48:52;30.50;43.30
39969;DHT22;25648;47.808;19.004;2022-08-11T16:51:19;30.60;43.30
39969;DHT22;25648;47.808;19.004;2022-08-11T16:53:46;30.40;43.70
39969;DHT22;25648;47.808;19.004;2022-08-11T16:56:19;30.20;43.50
39969;DHT22;25648;47.808;19.004;2022-08-11T16:58:51;30.20;43.70
39969;DHT22;25648;47.808;19.004;2022-08-11T17:01:36;30.20;44.00
39969;DHT22;25648;47.808;19.004;2022-08-11T17:07:05;30.10;43.90
39969;DHT22;25648;47.808;19.004;2022-08-11T17:09:54;29.80;44.10
39969;DHT22;25648;47.808;19.004;2022-08-11T17:13:01;29.50;44.50
39969;DHT22;25648;47.808;19.004;2022-08-11T17:15:43;29.80;44.30
39969;DHT22;25648;47.808;19.004;2022-08-11T17:19:04;30.00;44.10
39969;DHT22;25648;47.808;19.004;2022-08-11T17:21:40;29.50;44.00
39969;DHT22;25648;47.808;19.004;2022-08-11T17:24:27;29.30;44.30
39969;DHT22;25648;47.808;19.004;2022-08-11T17:26:56;29.00;44.60
39969;DHT22;25648;47.808;19.004;2022-08-11T17:29:40;29.10;44.90
39969;DHT22;25648;47.808;19.004;2022-08-11T17:32:18;28.70;44.90
39969;DHT22;25648;47.808;19.004;2022-08-11T17:35:09;27.90;46.30
39969;DHT22;25648;47.808;19.004;2022-08-11T17:38:06;28.30;45.60
39969;DHT22;25648;47.808;19.004;2022-08-11T17:40:38;28.90;45.10
39969;DHT22;25648;47.808;19.004;2022-08-11T17:43:06;29.20;45.00
39969;DHT22;25648;47.808;19.004;2022-08-11T17:45:54;29.50;44.50
39969;DHT22;25648;47.808;19.004;2022-08-11T17:48:31;29.50;44.20
39969;DHT22;25648;47.808;19.004;2022-08-11T17:51:02;29.70;43.80
39969;DHT22;25648;47.808;19.004;2022-08-11T17:53:35;29.90;44.00
39969;DHT22;25648;47.808;19.004;2022-08-11T17:56:20;30.00;43.90
39969;DHT22;25648;47.808;19.004;2022-08-11T17:59:07;29.90;43.80
39969;DHT22;25648;47.808;19.004;2022-08-11T18:01:53;29.60;44.20
39969;DHT22;25648;47.808;19.004;2022-08-11T18:04:41;30.00;44.20
39969;DHT22;25648;47.808;19.004;2022-08-11T18:07:08;30.40;44.60
39969;DHT22;25648;47.808;19.004;2022-08-11T18:09:52;30.70;44.40
39969;DHT22;25648;47.808;19.004;2022-08-11T18:12:37;30.90;44.20
39969;DHT22;25648;47.808;19.004;2022-08-11T18:15:21;31.00;44.30
39969;DHT22;25648;47.808;19.004;2022-08-11T18:18:06;31.00;44.20
39969;DHT22;25648;47.808;19.004;2022-08-11T18:20:50;31.00;44.20
39969;DHT22;25648;47.808;19.004;2022-08-11T18:23:34;31.10;44.30
39969;DHT22;25648;47.808;19.004;2022-08-11T18:26:20;31.10;44.20
39969;DHT22;25648;47.808;19.004;2022-08-11T18:29:07;31.00;44.00
39969;DHT22;25648;47.808;19.004;2022-08-11T18:31:53;30.80;43.90
39969;DHT22;25648;47.808;19.004;2022-08-11T18:34:40;30.40;44.40
39969;DHT22;25648;47.808;19.004;2022-08-11T18:37:32;30.10;44.30
39969;DHT22;25648;47.808;19.004;2022-08-11T18:40:21;29.90;44.80
39969;DHT22;25648;47.808;19.004;2022-08-11T18:43:09;29.40;45.00
39969;DHT22;25648;47.808;19.004;2022-08-11T18:46:05;28.80;45.60
39969;DHT22;25648;47.808;19.004;2022-08-11T18:48:58;29.00;46.10
39969;DHT22;25648;47.808;19.004;2022-08-11T18:51:48;29.30;45.00
39969;DHT22;25648;47.808;19.004;2022-08-11T18:54:36;29.20;45.20
39969;DHT22;25648;47.808;19.004;2022-08-11T18:57:21;29.40;45.10
39969;DHT22;25648;47.808;19.004;2022-08-11T19:00:07;29.20;45.50
39969;DHT22;25648;47.808;19.004;2022-08-11T19:02:54;28.90;45.60
39969;DHT22;25648;47.808;19.004;2022-08-11T19:05:39;29.00;46.10
39969;DHT22;25648;47.808;19.004;2022-08-11T19:08:36;29.10;46.10
39969;DHT22;25648;47.808;19.004;2022-08-11T19:11:21;29.40;45.50
39969;DHT22;25648;47.808;19.004;2022-08-11T19:14:07;29.90;45.20
39969;DHT22;25648;47.808;19.004;2022-08-11T19:16:54;30.10;44.70
39969;DHT22;25648;47.808;19.004;2022-08-11T19:19:41;30.20;44.70
39969;DHT22;25648;47.808;19.004;2022-08-11T19:22:26;30.20;44.40
39969;DHT22;25648;47.808;19.004;2022-08-11T19:25:13;30.00;44.50
39969;DHT22;25648;47.808;19.004;2022-08-11T19:27:58;29.80;45.20
39969;DHT22;25648;47.808;19.004;2022-08-11T19:30:43;29.80;44.70
39969;DHT22;25648;47.808;19.004;2022-08-11T19:33:28;29.50;45.40
39969;DHT22;25648;47.808;19.004;2022-08-11T19:36:14;29.30;45.50
39969;DHT22;25648;47.808;19.004;2022-08-11T19:38:59;29.10;45.60
39969;DHT22;25648;47.808;19.004;2022-08-11T19:41:44;28.80;45.50